createdAt,value
2022-11-30T00:00:18.188Z,100287.47
2022-11-30T00:05:20.958Z,100287.84
2022-11-30T00:10:23.607Z,100293.66
2022-11-30T00:15:25.302Z,100299.94
2022-11-30T00:20:29.704Z,100299.84
2022-11-30T00:25:31.381Z,100305.38
2022-11-30T00:30:33.076Z,100304.66
2022-11-30T00:35:34.767Z,100304.22
2022-11-30T00:40:36.428Z,100309.84
2022-11-30T00:45:38.089Z,100303.22
2022-11-30T00:50:39.789Z,100300.53
2022-11-30T00:55:43.569Z,100305.75
2022-11-30T01:00:45.515Z,100305.75
2022-11-30T01:05:47.333Z,100302.13
2022-11-30T01:10:53.392Z,100312.41
2022-11-30T01:15:55.156Z,100301.75
2022-11-30T01:20:56.961Z,100293.19
2022-11-30T01:25:58.660Z,100300.81
2022-11-30T01:31:02.691Z,100298.25
2022-11-30T01:36:13.785Z,100297.88
2022-11-30T01:41:20.050Z,100298.09
2022-11-30T01:46:27.520Z,100296.19
2022-11-30T01:51:34.190Z,100297.84
2022-11-30T01:56:37.852Z,100293.69
2022-11-30T02:01:39.552Z,100289.66
2022-11-30T02:06:42.185Z,100297.03
2022-11-30T02:11:43.937Z,100301.09
2022-11-30T02:17:05.536Z,100306.44
2022-11-30T02:22:33.620Z,100314.94
2022-11-30T02:27:53.645Z,100324.19
2022-11-30T02:33:07.283Z,100320.09
2022-11-30T02:38:10.428Z,100313.88
2022-11-30T02:43:12.139Z,100309.66
2022-11-30T02:48:17.281Z,100309.13
2022-11-30T02:53:19.972Z,100309.38
2022-11-30T02:58:22.365Z,100317.22
2022-11-30T03:03:24.074Z,100325.09
2022-11-30T03:08:25.823Z,100328.53
2022-11-30T03:13:27.496Z,100334.53
2022-11-30T03:18:29.152Z,100336.09
2022-11-30T03:23:30.860Z,100330.34
2022-11-30T03:28:32.651Z,100340.53
2022-11-30T03:33:34.332Z,100339.72
2022-11-30T03:38:36.639Z,100339.97
2022-11-30T03:43:38.355Z,100341.47
2022-11-30T03:48:43.235Z,100343.13
2022-11-30T03:53:45.085Z,100343.09
2022-11-30T03:58:46.796Z,100346.69
2022-11-30T04:03:49.282Z,100346.19
2022-11-30T04:08:50.967Z,100346.97
2022-11-30T04:13:52.636Z,100345.50
2022-11-30T04:18:54.342Z,100346.25
2022-11-30T04:23:56.006Z,100347.56
2022-11-30T04:28:57.676Z,100350.06
2022-11-30T04:33:59.469Z,100349.22
2022-11-30T04:39:01.148Z,100351.72
2022-11-30T04:44:02.839Z,100344.66
2022-11-30T04:49:04.664Z,100347.25
2022-11-30T04:54:06.450Z,100352.00
2022-11-30T04:59:08.124Z,100360.41
2022-11-30T05:04:09.846Z,100361.09
2022-11-30T05:09:11.529Z,100364.00
2022-11-30T05:14:13.226Z,100371.59
2022-11-30T05:19:15.549Z,100370.03
2022-11-30T05:24:17.261Z,100383.84
2022-11-30T05:29:18.939Z,100382.41
2022-11-30T05:34:20.662Z,100385.38
2022-11-30T05:39:22.329Z,100396.78
2022-11-30T05:44:24.007Z,100404.50
2022-11-30T05:49:25.684Z,100406.50
2022-11-30T05:54:27.443Z,100409.16
2022-11-30T05:59:29.111Z,100414.59
2022-11-30T06:04:30.874Z,100413.16
2022-11-30T06:09:32.550Z,100432.72
2022-11-30T06:14:34.225Z,100419.84
2022-11-30T06:19:35.890Z,100430.53
2022-11-30T06:24:37.599Z,100426.03
2022-11-30T06:29:39.279Z,100424.34
2022-11-30T06:34:40.941Z,100431.19
2022-11-30T06:40:05.291Z,100433.13
2022-11-30T06:45:05.794Z,100430.22
2022-11-30T06:50:08.369Z,100432.91
2022-11-30T06:55:11.039Z,100442.34
2022-11-30T07:00:13.470Z,100442.88
2022-11-30T07:05:15.189Z,100446.81
2022-11-30T07:10:20.118Z,100461.16
2022-11-30T07:15:22.130Z,100466.91
2022-11-30T07:20:23.793Z,100474.84
2022-11-30T07:25:44.113Z,100469.31
2022-11-30T07:30:45.780Z,100475.38
2022-11-30T07:35:47.460Z,100482.72
2022-11-30T07:40:49.154Z,100476.81
2022-11-30T07:45:54.032Z,100473.00
2022-11-30T07:51:02.321Z,100482.47
2022-11-30T07:56:05.794Z,100485.91
2022-11-30T08:01:12.916Z,100482.84
2022-11-30T08:06:19.899Z,100483.53
2022-11-30T08:11:24.354Z,100479.63
2022-11-30T08:16:28.845Z,100478.00
2022-11-30T08:21:32.442Z,100478.06
2022-11-30T08:26:34.475Z,100476.06
2022-11-30T08:31:37.772Z,100480.31
2022-11-30T08:36:40.716Z,100493.09
2022-11-30T08:41:42.422Z,100490.47
2022-11-30T08:46:52.383Z,100490.28
2022-11-30T08:57:20.361Z,100498.00
2022-11-30T09:02:22.074Z,100504.59
2022-11-30T09:07:23.777Z,100510.63
2022-11-30T09:12:25.460Z,100501.25
2022-11-30T09:17:27.150Z,100504.34
2022-11-30T09:22:28.919Z,100508.56
2022-11-30T09:27:34.211Z,100509.94
2022-11-30T09:32:35.883Z,100507.41
2022-11-30T09:37:38.888Z,100512.41
2022-11-30T09:43:20.789Z,100510.59
2022-11-30T09:48:27.261Z,100510.59
2022-11-30T09:53:40.493Z,100513.63
2022-11-30T09:58:49.447Z,100506.03
2022-11-30T10:03:51.300Z,100503.19
2022-11-30T10:09:07.942Z,100502.94
2022-11-30T10:14:35.500Z,100506.34
2022-11-30T10:20:01.730Z,100503.19
2022-11-30T10:25:08.626Z,100502.69
2022-11-30T10:30:25.370Z,100507.91
2022-11-30T10:35:43.374Z,100502.44
2022-11-30T10:40:58.893Z,100488.16
2022-11-30T10:46:00.694Z,100496.69
2022-11-30T10:51:03.679Z,100497.97
2022-11-30T10:56:12.241Z,100488.41
2022-11-30T11:01:35.957Z,100489.53
2022-11-30T11:06:44.133Z,100488.47
2022-11-30T11:11:45.980Z,100495.22
2022-11-30T11:16:51.964Z,100484.69
2022-11-30T11:21:53.951Z,100486.19
2022-11-30T11:26:57.143Z,100481.16
2022-11-30T11:32:27.231Z,100483.72
2022-11-30T11:37:31.127Z,100484.22
2022-11-30T11:42:42.482Z,100480.19
2022-11-30T11:47:46.300Z,100479.88
2022-11-30T11:52:49.890Z,100481.19
2022-11-30T11:58:02.387Z,100480.47
2022-11-30T12:03:19.211Z,100488.53
2022-11-30T12:08:55.142Z,100476.97
2022-11-30T12:13:56.869Z,100472.41
2022-11-30T12:19:16.144Z,100471.69
2022-11-30T12:24:26.691Z,100476.41
2022-11-30T12:30:09.982Z,100481.53
2022-11-30T12:35:45.598Z,100479.84
2022-11-30T12:41:02.423Z,100485.44
2022-11-30T12:46:14.963Z,100473.88
2022-11-30T12:51:30.159Z,100474.47
2022-11-30T12:57:01.467Z,100481.09
2022-11-30T13:02:22.222Z,100478.50
2022-11-30T13:07:38.359Z,100486.03
2022-11-30T13:12:47.115Z,100496.50
2022-11-30T13:17:50.135Z,100496.56
2022-11-30T13:23:34.056Z,100491.13
2022-11-30T13:28:41.882Z,100493.25
2022-11-30T13:33:49.038Z,100489.47
2022-11-30T13:39:14.000Z,100496.41
2022-11-30T13:44:37.265Z,100501.34
2022-11-30T13:49:38.995Z,100505.66
2022-11-30T13:54:50.431Z,100515.06
2022-11-30T13:59:54.572Z,100507.59
2022-11-30T14:05:21.503Z,100515.28
2022-11-30T14:10:36.090Z,100524.03
2022-11-30T14:15:42.075Z,100524.38
2022-11-30T14:21:16.412Z,100530.38
2022-11-30T14:26:24.552Z,100523.19
2022-11-30T14:31:30.517Z,100528.75
2022-11-30T14:36:41.610Z,100529.28
2022-11-30T14:41:43.291Z,100530.69
2022-11-30T14:46:45.104Z,100528.72
2022-11-30T14:52:05.595Z,100522.28
2022-11-30T14:57:22.684Z,100514.88
2022-11-30T15:02:38.656Z,100521.44
2022-11-30T15:07:42.993Z,100519.22
2022-11-30T15:12:45.943Z,100532.88
2022-11-30T15:17:51.074Z,100535.31
2022-11-30T15:22:54.902Z,100532.19
2022-11-30T15:27:58.564Z,100537.88
2022-11-30T15:33:00.311Z,100545.91
2022-11-30T15:38:08.414Z,100542.56
2022-11-30T15:43:22.006Z,100542.09
2022-11-30T15:48:49.214Z,100534.47
2022-11-30T15:53:51.911Z,100536.81
2022-11-30T15:59:24.187Z,100550.06
2022-11-30T16:04:25.898Z,100552.19
2022-11-30T16:09:32.619Z,100551.53
2022-11-30T16:14:34.313Z,100543.91
2022-11-30T16:19:36.009Z,100548.81
2022-11-30T16:24:37.682Z,100548.28
2022-11-30T16:29:39.344Z,100541.31
2022-11-30T16:34:41.576Z,100547.59
2022-11-30T16:39:43.406Z,100541.69
2022-11-30T16:44:45.084Z,100551.97
2022-11-30T16:49:47.154Z,100545.72
2022-11-30T16:54:49.024Z,100558.16
2022-11-30T16:59:50.679Z,100551.28
2022-11-30T17:04:52.388Z,100558.47
2022-11-30T17:09:54.062Z,100565.09
2022-11-30T17:14:56.003Z,100568.97
2022-11-30T17:19:57.822Z,100567.31
2022-11-30T17:24:59.624Z,100570.53
2022-11-30T17:30:01.400Z,100572.81
2022-11-30T17:35:03.515Z,100577.19
2022-11-30T17:40:07.064Z,100585.31
2022-11-30T17:45:09.348Z,100590.72
2022-11-30T17:50:11.437Z,100603.44
2022-11-30T17:55:13.097Z,100597.00
2022-11-30T18:00:15.493Z,100597.56
2022-11-30T18:05:17.226Z,100600.72
2022-11-30T18:10:19.102Z,100604.94
2022-11-30T18:15:20.755Z,100602.00
2022-11-30T18:20:22.840Z,100609.25
2022-11-30T18:25:24.718Z,100604.88
2022-11-30T18:30:26.663Z,100613.53
2022-11-30T18:35:28.766Z,100622.34
2022-11-30T18:40:30.452Z,100616.47
2022-11-30T18:45:35.816Z,100624.78
2022-11-30T18:50:37.580Z,100631.41
2022-11-30T18:55:39.239Z,100630.09
2022-11-30T19:00:41.158Z,100632.25
2022-11-30T19:05:42.819Z,100640.00
2022-11-30T19:10:44.507Z,100641.13
2022-11-30T19:15:46.187Z,100646.13
2022-11-30T19:20:47.857Z,100639.03
2022-11-30T19:25:50.197Z,100641.25
2022-11-30T19:30:51.911Z,100639.59
2022-11-30T19:35:53.631Z,100649.28
2022-11-30T19:40:55.425Z,100642.97
2022-11-30T19:46:02.999Z,100651.78
2022-11-30T19:51:13.405Z,100649.75
2022-11-30T19:56:18.107Z,100652.56
2022-11-30T20:01:25.399Z,100656.50
2022-11-30T20:06:33.923Z,100671.56
2022-11-30T20:11:35.797Z,100666.47
2022-11-30T20:16:37.501Z,100672.50
2022-11-30T20:21:39.235Z,100669.03
2022-11-30T20:26:43.358Z,100670.50
2022-11-30T20:31:47.164Z,100681.44
2022-11-30T20:36:48.857Z,100686.91
2022-11-30T20:41:50.519Z,100681.81
2022-11-30T20:46:52.189Z,100697.03
2022-11-30T20:51:54.037Z,100700.56
2022-11-30T20:56:57.329Z,100700.22
2022-11-30T21:01:59.037Z,100706.94
2022-11-30T21:07:00.888Z,100707.44
2022-11-30T21:12:02.593Z,100716.56
2022-11-30T21:17:04.776Z,100709.19
2022-11-30T21:22:06.505Z,100724.75
2022-11-30T21:27:08.302Z,100717.72
2022-11-30T21:32:10.085Z,100712.38
2022-11-30T21:37:11.743Z,100718.25
2022-11-30T21:42:13.395Z,100724.28
2022-11-30T21:47:15.266Z,100726.34
2022-11-30T21:52:16.995Z,100728.53
2022-11-30T21:57:18.886Z,100733.44
2022-11-30T22:02:20.604Z,100731.09
2022-11-30T22:07:31.655Z,100731.13
2022-11-30T22:12:33.402Z,100734.53
2022-11-30T22:17:35.073Z,100734.22
2022-11-30T22:22:36.753Z,100739.19
2022-11-30T22:27:38.559Z,100737.38
2022-11-30T22:32:43.477Z,100735.09
2022-11-30T22:37:45.391Z,100735.09
2022-11-30T22:42:47.064Z,100732.28
2022-11-30T22:47:48.755Z,100728.09
2022-11-30T22:53:05.164Z,100738.59
2022-11-30T22:58:06.848Z,100742.88
2022-11-30T23:03:08.609Z,100744.44
2022-11-30T23:08:10.358Z,100736.31
2022-11-30T23:13:12.138Z,100734.25
2022-11-30T23:18:13.813Z,100723.84
2022-11-30T23:23:15.552Z,100733.59
2022-11-30T23:28:17.375Z,100723.63
2022-11-30T23:33:19.078Z,100725.34
2022-11-30T23:38:20.754Z,100729.28
2022-11-30T23:43:22.461Z,100725.91
2022-11-30T23:48:24.464Z,100728.41
2022-11-30T23:53:26.693Z,100725.44
2022-11-30T23:58:29.840Z,100723.81
